createdAt,value
2018-02-25T00:00:00.830Z,-2.71
2018-02-25T00:01:01.315Z,-2.66
2018-02-25T00:02:01.310Z,-2.65
2018-02-25T00:03:01.037Z,-2.8
2018-02-25T00:04:01.037Z,-2.84
2018-02-25T00:05:01.264Z,-2.84
2018-02-25T00:06:00.740Z,-2.78
2018-02-25T00:07:01.231Z,-2.78
2018-02-25T00:08:00.972Z,-2.66
2018-02-25T00:09:00.956Z,-2.8
2018-02-25T00:10:01.186Z,-2.83
2018-02-25T00:11:01.176Z,-2.83
2018-02-25T00:12:00.899Z,-2.78
2018-02-25T00:13:00.889Z,-2.83
2018-02-25T00:14:01.127Z,-2.88
2018-02-25T00:15:01.116Z,-2.83
2018-02-25T00:16:00.843Z,-2.81
2018-02-25T00:17:01.085Z,-2.8
2018-02-25T00:18:01.083Z,-2.91
2018-02-25T00:19:00.793Z,-2.97
2018-02-25T00:20:01.047Z,-2.97
2018-02-25T00:21:01.020Z,-2.98
2018-02-25T00:22:00.754Z,-3.04
2018-02-25T00:23:00.993Z,-3.01
2018-02-25T00:24:00.984Z,-3.2
2018-02-25T00:25:01.018Z,-3.13
2018-02-25T00:26:00.945Z,-3.09
2018-02-25T00:27:00.925Z,-3.09
2018-02-25T00:28:00.927Z,-3.04
2018-02-25T00:29:00.905Z,-3.07
2018-02-25T00:30:00.897Z,-3.12
2018-02-25T00:31:00.866Z,-3.04
2018-02-25T00:32:00.342Z,-3.13
2018-02-25T00:33:00.837Z,-3.1
2018-02-25T00:34:00.820Z,-3.09
2018-02-25T00:35:00.806Z,-3.09
2018-02-25T00:36:00.805Z,-3.06
2018-02-25T00:37:00.779Z,-3.02
2018-02-25T00:38:00.508Z,-2.98
2018-02-25T00:39:00.751Z,-3.09
2018-02-25T00:40:00.744Z,-3.16
2018-02-25T00:41:00.747Z,-3.17
2018-02-25T00:42:00.456Z,-3.13
2018-02-25T00:43:00.441Z,-3.13
2018-02-25T00:44:00.429Z,-3.12
2018-02-25T00:45:00.659Z,-3.16
2018-02-25T00:46:00.637Z,-3.13
2018-02-25T00:47:00.626Z,-3.09
2018-02-25T00:48:00.357Z,-3.19
2018-02-25T00:49:00.606Z,-3.19
2018-02-25T00:50:00.581Z,-3.35
2018-02-25T00:51:00.306Z,-3.3
2018-02-25T00:52:00.546Z,-3.38
2018-02-25T00:53:00.291Z,-3.44
2018-02-25T00:54:00.266Z,-3.38
2018-02-25T00:55:00.509Z,-3.44
2018-02-25T00:55:59.977Z,-3.44
2018-02-25T00:57:00.481Z,-3.38
2018-02-25T00:58:00.458Z,-3.38
2018-02-25T00:59:00.210Z,-3.46
2018-02-25T01:00:00.457Z,-3.44
2018-02-25T01:01:00.154Z,-3.45
2018-02-25T01:01:59.890Z,-3.46
2018-02-25T01:03:00.396Z,-3.51
2018-02-25T01:04:00.107Z,-3.33
2018-02-25T01:05:00.096Z,-3.33
2018-02-25T01:06:04.533Z,-3.35
2018-02-25T01:07:00.071Z,-3.4
2018-02-25T01:08:00.050Z,-3.37
2018-02-25T01:09:00.043Z,-3.41
2018-02-25T01:10:00.315Z,-3.38
2018-02-25T01:10:59.750Z,-3.51
2018-02-25T01:12:00.242Z,-3.56
2018-02-25T01:12:59.984Z,-3.61
2018-02-25T01:13:59.961Z,-3.56
2018-02-25T01:14:59.944Z,-3.55
2018-02-25T01:15:59.927Z,-3.56
2018-02-25T01:16:59.905Z,-3.69
2018-02-25T01:18:00.180Z,-3.58
2018-02-25T01:19:00.134Z,-3.7
2018-02-25T01:20:00.122Z,-3.7
2018-02-25T01:21:00.104Z,-3.77
2018-02-25T01:21:59.847Z,-3.74
2018-02-25T01:23:00.069Z,-3.59
2018-02-25T01:24:00.052Z,-3.54
2018-02-25T01:24:59.786Z,-3.64
2018-02-25T01:26:00.027Z,-3.7
2018-02-25T01:26:59.752Z,-3.69
2018-02-25T01:27:59.990Z,-3.74
2018-02-25T01:29:00.006Z,-3.7
2018-02-25T01:29:59.450Z,-3.67
2018-02-25T01:30:59.972Z,-3.64
2018-02-25T01:31:59.693Z,-3.74
2018-02-25T01:32:59.914Z,-3.69
2018-02-25T01:33:59.391Z,-3.67
2018-02-25T01:34:59.931Z,-3.67
2018-02-25T01:36:03.627Z,-3.75
2018-02-25T01:36:59.852Z,-3.66
2018-02-25T01:37:59.839Z,-3.67
2018-02-25T01:38:59.830Z,-3.66
2018-02-25T01:39:59.548Z,-3.67
2018-02-25T01:40:59.541Z,-3.67
2018-02-25T01:41:59.791Z,-3.78
2018-02-25T01:42:59.505Z,-3.61
2018-02-25T01:43:59.762Z,-3.66
2018-02-25T01:44:59.731Z,-3.75
2018-02-25T01:45:59.710Z,-3.75
2018-02-25T01:46:59.699Z,-3.88
2018-02-25T01:47:59.678Z,-3.78
2018-02-25T01:48:59.662Z,-3.66
2018-02-25T01:49:59.646Z,-3.61
2018-02-25T01:50:59.395Z,-3.66
2018-02-25T01:51:59.632Z,-3.74
2018-02-25T01:52:59.615Z,-3.67
2018-02-25T01:53:59.328Z,-3.72
2018-02-25T01:54:59.570Z,-3.66
2018-02-25T01:55:59.549Z,-3.69
2018-02-25T01:56:59.548Z,-3.63
2018-02-25T01:57:59.013Z,-3.78
2018-02-25T01:58:59.518Z,-3.86
2018-02-25T01:59:59.489Z,-3.91
2018-02-25T02:00:59.484Z,-3.95
2018-02-25T02:01:59.209Z,-3.82
2018-02-25T02:02:59.445Z,-3.75
2018-02-25T02:03:59.430Z,-3.75
2018-02-25T02:04:59.163Z,-3.67
2018-02-25T02:05:59.145Z,-3.67
2018-02-25T02:07:01.236Z,-3.64
2018-02-25T02:07:59.367Z,-3.66
2018-02-25T02:08:59.367Z,-3.77
2018-02-25T02:09:59.343Z,-3.72
2018-02-25T02:10:59.062Z,-3.8
2018-02-25T02:11:59.302Z,-3.88
2018-02-25T02:12:59.301Z,-3.83
2018-02-25T02:13:59.274Z,-3.86
2018-02-25T02:14:59.006Z,-4.06
2018-02-25T02:15:59.244Z,-4.07
2018-02-25T02:16:58.723Z,-4.17
2018-02-25T02:17:59.203Z,-4.14
2018-02-25T02:18:58.944Z,-4.2
2018-02-25T02:19:58.925Z,-4.13
2018-02-25T02:20:58.917Z,-4.21
2018-02-25T02:21:59.142Z,-4.17
2018-02-25T02:22:59.129Z,-4.13
2018-02-25T02:23:58.626Z,-4.1
2018-02-25T02:24:59.102Z,-4.07
2018-02-25T02:25:59.094Z,-4.14
2018-02-25T02:26:58.813Z,-4.2
2018-02-25T02:27:59.051Z,-4.24
2018-02-25T02:28:58.784Z,-4.12
2018-02-25T02:29:59.020Z,-4.25
2018-02-25T02:30:58.747Z,-4.22
2018-02-25T02:31:58.989Z,-4.24
2018-02-25T02:32:58.978Z,-4.22
2018-02-25T02:33:58.959Z,-4.27
2018-02-25T02:34:58.683Z,-4.27
2018-02-25T02:35:58.678Z,-4.13
2018-02-25T02:37:00.823Z,-4.2
2018-02-25T02:37:58.903Z,-4.27
2018-02-25T02:38:58.892Z,-4.35
2018-02-25T02:39:58.910Z,-4.41
2018-02-25T02:40:58.605Z,-4.52
2018-02-25T02:41:58.841Z,-4.39
2018-02-25T02:42:58.835Z,-4.34
2018-02-25T02:43:58.561Z,-4.41
2018-02-25T02:44:58.779Z,-4.5
2018-02-25T02:45:58.779Z,-4.5
2018-02-25T02:46:58.758Z,-4.55
2018-02-25T02:47:58.768Z,-4.46
2018-02-25T02:48:58.467Z,-4.55
2018-02-25T02:49:58.700Z,-4.55
2018-02-25T02:50:58.429Z,-4.57
2018-02-25T02:52:02.125Z,-4.48
2018-02-25T02:52:58.396Z,-4.53
2018-02-25T02:53:58.639Z,-4.53
2018-02-25T02:54:58.622Z,-4.57
2018-02-25T02:55:58.351Z,-4.49
2018-02-25T02:56:58.345Z,-4.34
2018-02-25T02:57:58.578Z,-4.31
2018-02-25T02:58:58.567Z,-4.38
2018-02-25T02:59:58.551Z,-4.41
2018-02-25T03:00:58.530Z,-4.49
2018-02-25T03:01:58.593Z,-4.34
2018-02-25T03:02:58.498Z,-4.49
2018-02-25T03:03:58.478Z,-4.31
2018-02-25T03:04:58.471Z,-4.35
2018-02-25T03:05:58.207Z,-4.45
2018-02-25T03:06:58.185Z,-4.52
2018-02-25T03:07:58.418Z,-4.43
2018-02-25T03:08:57.892Z,-4.46
2018-02-25T03:09:58.382Z,-4.45
2018-02-25T03:10:58.366Z,-4.46
2018-02-25T03:11:58.344Z,-4.55
2018-02-25T03:12:58.081Z,-4.55
2018-02-25T03:13:58.314Z,-4.67
2018-02-25T03:14:58.300Z,-4.63
2018-02-25T03:15:58.040Z,-4.53
2018-02-25T03:16:58.276Z,-4.6
2018-02-25T03:17:57.993Z,-4.53
2018-02-25T03:18:58.247Z,-4.57
2018-02-25T03:19:58.236Z,-4.46
2018-02-25T03:20:58.205Z,-4.55
2018-02-25T03:21:58.215Z,-4.49
2018-02-25T03:22:58.244Z,-4.45
2018-02-25T03:23:57.899Z,-4.67
2018-02-25T03:24:58.151Z,-4.48
2018-02-25T03:25:58.121Z,-4.63
2018-02-25T03:26:58.107Z,-4.63
2018-02-25T03:27:58.092Z,-4.69
2018-02-25T03:28:58.076Z,-4.7
2018-02-25T03:29:58.062Z,-4.81
2018-02-25T03:30:58.050Z,-4.71
2018-02-25T03:31:58.035Z,-4.7
2018-02-25T03:32:58.010Z,-4.89
2018-02-25T03:33:58.005Z,-4.79
2018-02-25T03:34:57.728Z,-4.79
2018-02-25T03:35:57.995Z,-4.79
2018-02-25T03:36:57.942Z,-4.79
2018-02-25T03:38:01.430Z,-4.79
2018-02-25T03:38:57.673Z,-4.84
2018-02-25T03:39:57.895Z,-4.92
2018-02-25T03:40:57.879Z,-4.84
2018-02-25T03:41:57.612Z,-4.85
2018-02-25T03:42:57.852Z,-4.85
2018-02-25T03:43:57.847Z,-4.87
2018-02-25T03:44:57.812Z,-4.84
2018-02-25T03:45:57.802Z,-4.81
2018-02-25T03:46:57.790Z,-4.82
2018-02-25T03:47:57.771Z,-4.89
2018-02-25T03:48:57.503Z,-4.77
2018-02-25T03:49:57.747Z,-4.81
2018-02-25T03:50:57.731Z,-4.84
2018-02-25T03:51:57.715Z,-4.85
2018-02-25T03:52:57.431Z,-4.82
2018-02-25T03:53:57.668Z,-4.89
2018-02-25T03:54:57.407Z,-4.81
2018-02-25T03:55:57.389Z,-4.99
2018-02-25T03:56:57.112Z,-4.82
2018-02-25T03:57:57.360Z,-4.85
2018-02-25T03:58:57.339Z,-4.87
2018-02-25T03:59:57.330Z,-5
2018-02-25T04:00:57.571Z,-4.92
2018-02-25T04:01:57.546Z,-4.88
2018-02-25T04:02:57.529Z,-4.89
2018-02-25T04:03:57.505Z,-5.02
2018-02-25T04:04:57.239Z,-4.89
2018-02-25T04:05:57.472Z,-4.96
2018-02-25T04:06:57.458Z,-4.99
2018-02-25T04:07:57.441Z,-5.09
2018-02-25T04:08:57.426Z,-5.02
2018-02-25T04:09:57.408Z,-5
2018-02-25T04:10:57.148Z,-5.09
2018-02-25T04:11:57.376Z,-5.02
2018-02-25T04:12:57.360Z,-4.98
2018-02-25T04:13:57.365Z,-4.95
2018-02-25T04:14:57.085Z,-4.99
2018-02-25T04:15:57.312Z,-5.02
2018-02-25T04:16:57.305Z,-5.09
2018-02-25T04:17:57.292Z,-5.17
2018-02-25T04:18:57.269Z,-5.24
2018-02-25T04:19:56.997Z,-5.28
2018-02-25T04:20:57.230Z,-5.33
2018-02-25T04:21:56.957Z,-5.22
2018-02-25T04:22:56.939Z,-5.29
2018-02-25T04:23:57.199Z,-5.31
2018-02-25T04:24:56.916Z,-5.27
2018-02-25T04:25:57.149Z,-5.29
2018-02-25T04:26:57.162Z,-5.42
2018-02-25T04:27:56.611Z,-5.29
2018-02-25T04:28:57.113Z,-5.42
2018-02-25T04:29:56.830Z,-5.36
2018-02-25T04:30:57.096Z,-5.42
2018-02-25T04:31:57.057Z,-5.29
2018-02-25T04:32:57.030Z,-5.21
2018-02-25T04:33:57.020Z,-5.31
2018-02-25T04:34:56.752Z,-5.31
2018-02-25T04:35:56.746Z,-5.4
2018-02-25T04:36:56.963Z,-5.39
2018-02-25T04:37:56.702Z,-5.39
2018-02-25T04:38:57.482Z,-5.35
2018-02-25T04:39:56.674Z,-5.47
2018-02-25T04:40:56.923Z,-5.39
2018-02-25T04:41:56.634Z,-5.42
2018-02-25T04:42:56.872Z,-5.39
2018-02-25T04:43:56.852Z,-5.46
2018-02-25T04:44:56.329Z,-5.53
2018-02-25T04:45:56.571Z,-5.49
2018-02-25T04:46:56.547Z,-5.53
2018-02-25T04:47:56.532Z,-5.42
2018-02-25T04:48:56.766Z,-5.39
2018-02-25T04:49:56.499Z,-5.4
2018-02-25T04:50:56.740Z,-5.4
2018-02-25T04:51:56.714Z,-5.4
2018-02-25T04:52:56.469Z,-5.47
2018-02-25T04:53:56.762Z,-5.39
2018-02-25T04:54:56.412Z,-5.43
2018-02-25T04:55:56.660Z,-5.43
2018-02-25T04:56:56.384Z,-5.47
2018-02-25T04:57:56.621Z,-5.4
2018-02-25T04:58:56.613Z,-5.38
2018-02-25T04:59:56.584Z,-5.43
2018-02-25T05:00:56.564Z,-5.42
2018-02-25T05:01:56.554Z,-5.39
2018-02-25T05:02:56.544Z,-5.29
2018-02-25T05:03:56.523Z,-5.21
2018-02-25T05:04:56.508Z,-5.22
2018-02-25T05:05:56.235Z,-5.33
2018-02-25T05:06:56.216Z,-5.25
2018-02-25T05:07:56.451Z,-5.29
2018-02-25T05:08:56.190Z,-5.4
2018-02-25T05:09:56.178Z,-5.45
2018-02-25T05:10:56.407Z,-5.53
2018-02-25T05:11:56.128Z,-5.53
2018-02-25T05:12:56.364Z,-5.51
2018-02-25T05:13:56.101Z,-5.49
2018-02-25T05:14:56.082Z,-5.6
2018-02-25T05:15:56.341Z,-5.53
2018-02-25T05:16:56.054Z,-5.58
2018-02-25T05:17:56.304Z,-5.57
2018-02-25T05:18:56.081Z,-5.64
2018-02-25T05:19:56.257Z,-5.61
2018-02-25T05:20:56.246Z,-5.64
2018-02-25T05:21:56.044Z,-5.64
2018-02-25T05:22:56.202Z,-5.6
2018-02-25T05:23:55.929Z,-5.68
2018-02-25T05:24:56.190Z,-5.71
2018-02-25T05:25:56.153Z,-5.61
2018-02-25T05:26:56.149Z,-5.6
2018-02-25T05:27:56.132Z,-5.63
2018-02-25T05:28:55.847Z,-5.58
2018-02-25T05:29:55.888Z,-5.57
2018-02-25T05:30:55.815Z,-5.66
2018-02-25T05:31:56.053Z,-5.71
2018-02-25T05:32:55.780Z,-5.78
2018-02-25T05:33:56.014Z,-5.84
2018-02-25T05:34:56.004Z,-5.82
2018-02-25T05:35:55.731Z,-5.78
2018-02-25T05:36:55.765Z,-5.74
2018-02-25T05:37:55.697Z,-5.72
2018-02-25T05:38:55.933Z,-5.71
2018-02-25T05:39:55.930Z,-5.75
2018-02-25T05:40:55.669Z,-5.64
2018-02-25T05:41:55.883Z,-5.72
2018-02-25T05:42:55.627Z,-5.68
2018-02-25T05:43:55.408Z,-5.68
2018-02-25T05:44:55.335Z,-5.82
2018-02-25T05:45:55.821Z,-5.85
2018-02-25T05:46:55.807Z,-5.84
2018-02-25T05:47:55.779Z,-5.82
2018-02-25T05:48:55.766Z,-5.92
2018-02-25T05:49:55.793Z,-5.85
2018-02-25T05:50:55.805Z,-6.03
2018-02-25T05:51:55.720Z,-5.82
2018-02-25T05:52:55.456Z,-5.86
2018-02-25T05:53:55.176Z,-5.92
2018-02-25T05:54:55.664Z,-5.79
2018-02-25T05:55:55.147Z,-5.84
2018-02-25T05:56:55.384Z,-5.84
2018-02-25T05:57:55.616Z,-5.84
2018-02-25T05:58:55.344Z,-5.89
2018-02-25T05:59:55.590Z,-5.9
2018-02-25T06:00:55.577Z,-5.92
2018-02-25T06:01:55.541Z,-5.84
2018-02-25T06:02:55.530Z,-5.85
2018-02-25T06:03:55.279Z,-5.82
2018-02-25T06:04:55.279Z,-5.85
2018-02-25T06:05:55.479Z,-5.81
2018-02-25T06:06:55.462Z,-5.74
2018-02-25T06:07:55.450Z,-5.89
2018-02-25T06:08:55.427Z,-5.81
2018-02-25T06:09:55.670Z,-5.96
2018-02-25T06:10:55.396Z,-5.95
2018-02-25T06:11:55.374Z,-5.92
2018-02-25T06:12:55.103Z,-5.93
2018-02-25T06:13:55.350Z,-5.95
2018-02-25T06:14:55.324Z,-5.81
2018-02-25T06:15:55.320Z,-5.81
2018-02-25T06:16:55.034Z,-5.92
2018-02-25T06:17:55.020Z,-5.99
2018-02-25T06:18:55.008Z,-5.89
2018-02-25T06:19:55.240Z,-5.84
2018-02-25T06:20:55.220Z,-5.84
2018-02-25T06:21:55.207Z,-5.81
2018-02-25T06:22:54.947Z,-5.89
2018-02-25T06:23:54.930Z,-5.92
2018-02-25T06:24:59.063Z,-5.85
2018-02-25T06:25:55.139Z,-5.96
2018-02-25T06:26:55.131Z,-5.92
2018-02-25T06:27:55.104Z,-5.9
2018-02-25T06:28:54.900Z,-5.85
2018-02-25T06:29:55.076Z,-5.85
2018-02-25T06:30:55.053Z,-5.74
2018-02-25T06:31:55.036Z,-5.82
2018-02-25T06:32:54.771Z,-5.74
2018-02-25T06:33:54.754Z,-5.89
2018-02-25T06:34:54.984Z,-5.92
2018-02-25T06:35:54.982Z,-5.95
2018-02-25T06:36:55.038Z,-5.96
2018-02-25T06:37:54.938Z,-5.84
2018-02-25T06:38:54.924Z,-5.79
2018-02-25T06:39:54.914Z,-5.79
2018-02-25T06:40:54.896Z,-5.86
2018-02-25T06:41:54.615Z,-5.82
2018-02-25T06:42:54.860Z,-5.81
2018-02-25T06:43:54.582Z,-5.78
2018-02-25T06:44:54.833Z,-5.74
2018-02-25T06:45:54.803Z,-5.84
2018-02-25T06:46:54.782Z,-5.81
2018-02-25T06:47:54.885Z,-5.78
2018-02-25T06:48:54.755Z,-5.71
2018-02-25T06:49:54.739Z,-5.64
2018-02-25T06:50:54.727Z,-5.61
2018-02-25T06:51:54.453Z,-5.67
2018-02-25T06:52:54.686Z,-5.71
2018-02-25T06:53:54.672Z,-5.61
2018-02-25T06:54:54.403Z,-5.61
2018-02-25T06:55:54.632Z,-5.61
2018-02-25T06:56:54.615Z,-5.58
2018-02-25T06:57:54.354Z,-5.58
2018-02-25T06:58:54.074Z,-5.51
2018-02-25T06:59:54.312Z,-5.54
2018-02-25T07:00:54.292Z,-5.43
2018-02-25T07:01:54.029Z,-5.43
2018-02-25T07:02:54.530Z,-5.39
2018-02-25T07:03:54.499Z,-5.47
2018-02-25T07:04:54.490Z,-5.47
2018-02-25T07:05:54.539Z,-5.47
2018-02-25T07:06:54.451Z,-5.42
2018-02-25T07:07:54.526Z,-5.35
2018-02-25T07:08:54.165Z,-5.51
2018-02-25T07:09:54.150Z,-5.45
2018-02-25T07:10:54.642Z,-5.53
2018-02-25T07:11:54.114Z,-5.54
2018-02-25T07:12:54.354Z,-5.49
2018-02-25T07:13:54.082Z,-5.51
2018-02-25T07:14:54.064Z,-5.43
2018-02-25T07:15:54.304Z,-5.46
2018-02-25T07:16:54.288Z,-5.36
2018-02-25T07:17:54.016Z,-5.38
2018-02-25T07:18:54.270Z,-5.47
2018-02-25T07:19:54.238Z,-5.38
2018-02-25T07:20:53.991Z,-5.43
2018-02-25T07:21:54.202Z,-5.43
2018-02-25T07:22:53.935Z,-5.35
2018-02-25T07:23:53.669Z,-5.39
2018-02-25T07:24:53.912Z,-5.28
2018-02-25T07:25:54.138Z,-5.29
2018-02-25T07:26:54.283Z,-5.27
2018-02-25T07:27:54.213Z,-5.36
2018-02-25T07:28:54.089Z,-5.25
2018-02-25T07:29:54.077Z,-5.36
2018-02-25T07:30:53.805Z,-5.33
2018-02-25T07:31:54.083Z,-5.33
2018-02-25T07:32:53.517Z,-5.21
2018-02-25T07:33:54.008Z,-4.99
2018-02-25T07:34:53.752Z,-4.28
2018-02-25T07:35:53.729Z,-3.4
2018-02-25T07:36:53.755Z,-2.63
2018-02-25T07:37:53.731Z,-2.02
2018-02-25T07:38:53.941Z,-1.35
2018-02-25T07:39:53.929Z,-1.02
2018-02-25T07:40:55.215Z,-1.15
2018-02-25T07:41:53.886Z,-1.17
2018-02-25T07:42:53.625Z,-1.09
2018-02-25T07:43:53.610Z,-1.09
2018-02-25T07:44:53.869Z,-0.94
2018-02-25T07:45:53.595Z,-0.74
2018-02-25T07:46:53.584Z,-0.25
2018-02-25T07:47:53.824Z,0.32
2018-02-25T07:48:53.550Z,0.62
2018-02-25T07:49:53.596Z,0.65
2018-02-25T07:50:53.529Z,0.46
2018-02-25T07:51:53.519Z,0.15
2018-02-25T07:52:53.775Z,0.1
2018-02-25T07:53:53.759Z,-0.38
2018-02-25T07:54:53.241Z,-0.72
2018-02-25T07:55:53.767Z,-0.65
2018-02-25T07:56:53.716Z,-0.41
2018-02-25T07:57:53.720Z,-0.39
2018-02-25T07:58:53.696Z,-0.07
2018-02-25T07:59:53.687Z,0.49
2018-02-25T08:00:53.441Z,0.68
2018-02-25T08:01:53.680Z,0.95
2018-02-25T08:02:53.405Z,0.73
2018-02-25T08:03:53.662Z,0.74
2018-02-25T08:04:53.385Z,0.7
2018-02-25T08:05:53.629Z,1.05
2018-02-25T08:06:53.614Z,1.24
2018-02-25T08:07:53.627Z,1.58
2018-02-25T08:08:53.096Z,2.02
2018-02-25T08:09:53.603Z,2.25
2018-02-25T08:10:53.322Z,2.49
2018-02-25T08:11:53.315Z,2.5
2018-02-25T08:12:53.557Z,2.22
2018-02-25T08:13:53.554Z,2.28
2018-02-25T08:14:53.549Z,2.5
2018-02-25T08:15:53.300Z,2.53
2018-02-25T08:16:53.529Z,2.22
2018-02-25T08:17:53.529Z,2.42
2018-02-25T08:18:53.515Z,2.15
2018-02-25T08:19:53.505Z,1.38
2018-02-25T08:20:53.492Z,0.78
2018-02-25T08:21:53.243Z,0.77
2018-02-25T08:22:53.481Z,0.6
2018-02-25T08:23:53.464Z,0.18
2018-02-25T08:24:53.487Z,-0.1
2018-02-25T08:25:53.464Z,-0.13
2018-02-25T08:26:53.189Z,-0.08
2018-02-25T08:27:52.928Z,0.34
2018-02-25T08:28:53.419Z,0.73
2018-02-25T08:29:53.408Z,0.91
2018-02-25T08:30:53.451Z,0.88
2018-02-25T08:31:53.393Z,0.69
2018-02-25T08:32:53.142Z,0.19
2018-02-25T08:33:53.377Z,-0.35
2018-02-25T08:34:53.119Z,-1.02
2018-02-25T08:35:53.103Z,-1.4
2018-02-25T08:36:53.349Z,-1.9
2018-02-25T08:37:53.219Z,-2.5
2018-02-25T08:38:53.322Z,-2.91
2018-02-25T08:40:53.049Z,-3.33
2018-02-25T08:41:53.287Z,-3.56
2018-02-25T08:42:53.279Z,-3.66
2018-02-25T08:43:53.012Z,-3.86
2018-02-25T08:44:53.022Z,-3.8
2018-02-25T08:45:53.286Z,-3.69
2018-02-25T08:46:53.228Z,-3.74
2018-02-25T08:47:52.957Z,-3.64
2018-02-25T08:48:52.957Z,-3.66
2018-02-25T08:49:52.935Z,-3.59
2018-02-25T08:50:52.931Z,-3.59
2018-02-25T08:51:53.174Z,-3.54
2018-02-25T08:52:52.646Z,-3.56
2018-02-25T08:53:53.148Z,-3.38
2018-02-25T08:54:52.884Z,-3.46
2018-02-25T08:55:52.866Z,-3.4
2018-02-25T08:56:53.908Z,-3.37
2018-02-25T08:57:52.825Z,-3.25
2018-02-25T08:58:53.064Z,-3.23
2018-02-25T08:59:52.804Z,-3.2
2018-02-25T09:00:53.040Z,-3.12
2018-02-25T09:01:53.020Z,-3.15
2018-02-25T09:02:53.014Z,-3.2
2018-02-25T09:03:52.999Z,-3.16
2018-02-25T09:04:52.992Z,-3.12
2018-02-25T09:05:52.991Z,-3.15
2018-02-25T09:06:52.952Z,-3.23
2018-02-25T09:07:52.938Z,-3.28
2018-02-25T09:08:52.677Z,-3.41
2018-02-25T09:09:52.911Z,-3.37
2018-02-25T09:10:52.386Z,-3.38
2018-02-25T09:11:55.541Z,-3.33
2018-02-25T09:12:52.875Z,-3.37
2018-02-25T09:13:52.886Z,-3.3
2018-02-25T09:14:52.602Z,-3.37
2018-02-25T09:15:52.599Z,-3.31
2018-02-25T09:16:52.560Z,-3.34
2018-02-25T09:17:52.548Z,-3.19
2018-02-25T09:18:52.786Z,-3.13
2018-02-25T09:19:52.259Z,-3.13
2018-02-25T09:20:52.771Z,-3.1
2018-02-25T09:21:52.485Z,-3.22
2018-02-25T09:22:52.484Z,-3.23
2018-02-25T09:23:52.477Z,-3.17
2018-02-25T09:24:52.710Z,-3.19
2018-02-25T09:25:52.685Z,-3.2
2018-02-25T09:26:52.668Z,-3.15
2018-02-25T09:27:52.657Z,-3.07
2018-02-25T09:28:52.638Z,-2.97
2018-02-25T09:29:52.370Z,-2.98
2018-02-25T09:30:52.609Z,-2.95
2018-02-25T09:31:52.601Z,-2.78
2018-02-25T09:32:52.600Z,-2.8
2018-02-25T09:33:52.318Z,-2.83
2018-02-25T09:34:52.555Z,-2.86
2018-02-25T09:35:52.691Z,-2.92
2018-02-25T09:36:52.543Z,-2.99
2018-02-25T09:37:53.313Z,-2.99
2018-02-25T09:38:52.299Z,-2.88
2018-02-25T09:39:52.486Z,-2.84
2018-02-25T09:40:51.968Z,-2.81
2018-02-25T09:41:52.198Z,-2.95
2018-02-25T09:42:53.445Z,-2.88
2018-02-25T09:43:52.425Z,-2.86
2018-02-25T09:44:52.421Z,-2.78
2018-02-25T09:45:52.406Z,-2.8
2018-02-25T09:46:52.135Z,-2.77
2018-02-25T09:47:52.125Z,-2.74
2018-02-25T09:48:52.359Z,-2.63
2018-02-25T09:49:52.085Z,-2.73
2018-02-25T09:50:52.069Z,-2.73
2018-02-25T09:51:52.316Z,-2.92
2018-02-25T09:52:52.042Z,-2.95
2018-02-25T09:53:52.040Z,-2.84
2018-02-25T09:54:52.282Z,-2.73
2018-02-25T09:55:52.269Z,-2.8
2018-02-25T09:56:51.991Z,-2.66
2018-02-25T09:57:52.286Z,-2.6
2018-02-25T09:58:52.247Z,-2.53
2018-02-25T09:59:52.197Z,-2.38
2018-02-25T10:00:52.187Z,-2.25
2018-02-25T10:01:51.920Z,-2.28
2018-02-25T10:02:51.985Z,-2.21
2018-02-25T10:03:51.641Z,-2.12
2018-02-25T10:04:52.166Z,-2.02
2018-02-25T10:05:52.128Z,-2.01
2018-02-25T10:06:52.120Z,-1.89
2018-02-25T10:07:52.118Z,-1.92
2018-02-25T10:08:52.083Z,-1.8
2018-02-25T10:09:51.827Z,-1.89
2018-02-25T10:10:51.821Z,-1.77
2018-02-25T10:11:51.805Z,-1.77
2018-02-25T10:12:53.696Z,-1.83
2018-02-25T10:13:51.789Z,-1.92
2018-02-25T10:14:52.007Z,-2
2018-02-25T10:15:52.028Z,-2.12
2018-02-25T10:16:51.499Z,-2.1
2018-02-25T10:17:51.981Z,-2
2018-02-25T10:18:51.958Z,-1.94
2018-02-25T10:19:51.692Z,-1.87
2018-02-25T10:20:51.669Z,-1.89
2018-02-25T10:21:51.656Z,-1.9
2018-02-25T10:22:51.902Z,-2
2018-02-25T10:23:51.892Z,-1.9
2018-02-25T10:24:51.638Z,-1.98
2018-02-25T10:25:51.935Z,-1.94
2018-02-25T10:26:51.837Z,-1.92
2018-02-25T10:56:29.600Z,-0.9
2018-02-25T10:57:29.818Z,-1.02
2018-02-25T10:58:29.795Z,-0.89
2018-02-25T10:59:29.780Z,-1.07
2018-02-25T11:00:29.789Z,-0.99
2018-02-25T11:01:29.758Z,-1.08
2018-02-25T11:02:29.469Z,-0.93
2018-02-25T11:03:29.714Z,-0.85
2018-02-25T11:04:29.695Z,-0.77
2018-02-25T11:05:29.442Z,-0.74
2018-02-25T11:06:29.422Z,-0.7
2018-02-25T11:07:29.661Z,-0.85
2018-02-25T11:08:29.637Z,-0.97
2018-02-25T11:09:29.371Z,-0.94
2018-02-25T11:10:29.361Z,-0.94
2018-02-25T11:11:29.640Z,-0.85
2018-02-25T11:12:29.327Z,-0.93
2018-02-25T11:13:29.315Z,-0.85
2018-02-25T11:14:29.555Z,-0.72
2018-02-25T11:15:29.617Z,-0.71
2018-02-25T11:16:29.277Z,-0.67
2018-02-25T11:17:29.557Z,-0.56
2018-02-25T11:18:29.269Z,-0.62
2018-02-25T11:19:29.491Z,-0.75
2018-02-25T11:20:29.484Z,-0.77
2018-02-25T11:21:29.467Z,-0.78
2018-02-25T11:22:29.517Z,-0.7
2018-02-25T11:23:29.442Z,-0.7
2018-02-25T11:24:29.430Z,-0.72
2018-02-25T11:25:29.526Z,-0.82
2018-02-25T11:26:31.562Z,-0.67
2018-02-25T11:27:29.415Z,-0.72
2018-02-25T11:28:29.130Z,-0.65
2018-02-25T11:29:29.108Z,-0.57
2018-02-25T11:30:29.106Z,-0.46
2018-02-25T11:31:29.697Z,-0.47
2018-02-25T11:32:29.074Z,-0.71
2018-02-25T11:33:28.803Z,-0.85
2018-02-25T11:34:29.051Z,-0.91
2018-02-25T11:35:29.290Z,-1.02
2018-02-25T11:36:29.026Z,-0.8
2018-02-25T11:37:29.015Z,-0.85
2018-02-25T11:38:29.253Z,-0.85
2018-02-25T11:39:29.260Z,-0.8
2018-02-25T11:40:28.970Z,-0.82
2018-02-25T11:41:29.268Z,-0.71
2018-02-25T11:42:28.952Z,-0.89
2018-02-25T11:43:28.932Z,-0.97
2018-02-25T11:44:29.182Z,-0.96
2018-02-25T11:45:28.908Z,-0.97
2018-02-25T11:46:28.904Z,-0.91
2018-02-25T11:47:29.177Z,-1.08
2018-02-25T11:48:28.876Z,-0.94
2018-02-25T11:49:29.130Z,-0.91
2018-02-25T11:50:28.860Z,-0.8
2018-02-25T11:51:29.088Z,-0.64
2018-02-25T11:52:29.081Z,-0.68
2018-02-25T11:53:28.805Z,-0.65
2018-02-25T11:54:28.813Z,-0.67
2018-02-25T11:55:29.175Z,-0.5
2018-02-25T11:56:30.931Z,-0.44
2018-02-25T11:57:28.756Z,-0.38
2018-02-25T11:58:29.001Z,-0.32
2018-02-25T11:59:28.733Z,-0.25
2018-02-25T12:00:28.971Z,-0.32
2018-02-25T12:01:28.965Z,-0.21
2018-02-25T12:02:28.951Z,-0.25
2018-02-25T12:03:28.691Z,-0.17
2018-02-25T12:04:28.418Z,-0.06
2018-02-25T12:05:28.911Z,0
2018-02-25T12:06:28.909Z,0.04
2018-02-25T12:07:28.635Z,0.07
2018-02-25T12:08:28.909Z,0.08
2018-02-25T12:09:28.868Z,0.05
2018-02-25T12:10:28.600Z,0.05
2018-02-25T12:11:28.853Z,0.12
2018-02-25T12:12:28.587Z,0.1
2018-02-25T12:13:28.831Z,0.21
2018-02-25T12:14:28.562Z,0.19
2018-02-25T12:15:28.816Z,0.18
2018-02-25T12:16:28.782Z,0.12
2018-02-25T12:17:28.778Z,0.25
2018-02-25T12:18:28.778Z,0.16
2018-02-25T12:19:28.517Z,0.23
2018-02-25T12:20:28.743Z,0.29
2018-02-25T12:21:28.722Z,0.18
2018-02-25T12:22:28.455Z,0.19
2018-02-25T12:23:28.464Z,0.12
2018-02-25T12:24:28.174Z,0
2018-02-25T12:25:28.682Z,0
2018-02-25T12:26:28.149Z,-0.15
2018-02-25T12:27:28.408Z,-0.11
2018-02-25T12:28:28.647Z,-0.06
2018-02-25T12:29:28.368Z,-0.08
2018-02-25T12:30:28.363Z,-0.18
2018-02-25T12:31:28.601Z,-0.23
2018-02-25T12:32:28.086Z,-0.23
2018-02-25T12:33:28.579Z,-0.06
2018-02-25T12:34:28.567Z,-0.08
2018-02-25T12:35:28.689Z,-0.06
2018-02-25T12:36:28.296Z,-0.07
2018-02-25T12:37:28.282Z,0.08
2018-02-25T12:38:28.271Z,0.1
2018-02-25T12:39:28.509Z,0.16
2018-02-25T12:40:28.490Z,0.18
2018-02-25T12:41:28.227Z,0.1
2018-02-25T12:42:27.962Z,0.07
2018-02-25T12:43:28.454Z,0.08
2018-02-25T12:44:28.442Z,0.22
2018-02-25T12:45:28.492Z,0.19
2018-02-25T12:46:28.236Z,0.28
2018-02-25T12:47:28.150Z,0.32
2018-02-25T12:48:28.394Z,0.23
2018-02-25T12:49:28.385Z,0
2018-02-25T12:50:28.377Z,0.1
2018-02-25T12:51:27.855Z,0.1
2018-02-25T12:52:28.100Z,0.1
2018-02-25T12:53:27.829Z,0.18
2018-02-25T12:54:28.100Z,0.18
2018-02-25T12:55:28.313Z,0.12
2018-02-25T12:56:28.045Z,0.1
2018-02-25T12:57:30.781Z,0.16
2018-02-25T12:58:28.282Z,0.19
2018-02-25T12:59:27.758Z,0.32
2018-02-25T13:00:28.257Z,0.37
2018-02-25T13:01:28.240Z,0.41
2018-02-25T13:02:27.980Z,0.4
2018-02-25T13:03:27.737Z,0.46
2018-02-25T13:04:28.209Z,0.43
2018-02-25T13:05:28.185Z,0.4
2018-02-25T13:06:28.184Z,0.29
2018-02-25T13:07:28.166Z,0.29
2018-02-25T13:08:27.908Z,0.36
2018-02-25T13:09:27.888Z,0.41
2018-02-25T13:10:28.125Z,0.46
2018-02-25T13:11:28.122Z,0.55
2018-02-25T13:12:28.114Z,0.44
2018-02-25T13:13:28.100Z,0.49
2018-02-25T13:14:28.079Z,0.4
2018-02-25T13:15:28.128Z,0.52
2018-02-25T13:16:27.839Z,0.55
2018-02-25T13:17:28.061Z,0.65
2018-02-25T13:18:28.056Z,0.65
2018-02-25T13:19:28.020Z,0.66
2018-02-25T13:20:27.756Z,0.56
2018-02-25T13:21:27.742Z,0.47
2018-02-25T13:22:27.995Z,0.52
2018-02-25T13:23:27.970Z,0.47
2018-02-25T13:24:27.983Z,0.56
2018-02-25T13:25:27.700Z,0.58
2018-02-25T13:26:27.946Z,0.46
2018-02-25T13:27:28.136Z,0.47
2018-02-25T13:28:27.921Z,0.52